Time;durP1;ratioP1;P1;durP2;ratioP2;P2;SDS_P1;SDS_P2;PMS_P1;PMS_P2;Temp;Humidity;BMP_temperature;BMP_pressure;BME280_temperature;BME280_humidity;BME280_pressure;Samples;Min_cycle;Max_cycle;Signal;HPM_P1;HPM_P2
2022/07/21 00:02:06;;;;;;;12.48;6.22;;;;;;;;;;10177924;28;20058;-63
2022/07/21 00:07:03;;;;;;;12.10;6.57;;;;;;;;;;10168692;28;20055;-63
2022/07/21 00:11:57;;;;;;;7.22;6.40;;;;;;;;;;10164963;28;20052;-64
2022/07/21 00:16:52;;;;;;;11.23;6.30;;;;;;;;;;10172372;28;20075;-65
2022/07/21 00:21:46;;;;;;;12.35;6.93;;;;;;;;;;10178245;28;20055;-64
2022/07/21 00:26:41;;;;;;;8.57;6.40;;;;;;;;;;10179989;28;20044;-65
2022/07/21 00:31:35;;;;;;;6.63;5.55;;;;;;;;;;10175319;28;20075;-65
2022/07/21 00:36:29;;;;;;;7.47;6.53;;;;;;;;;;10191614;28;20541;-64
2022/07/21 00:41:23;;;;;;;7.70;6.90;;;;;;;;;;10181641;28;20093;-64
2022/07/21 00:46:20;;;;;;;11.80;7.80;;;;;;;;;;10176901;28;20060;-64
2022/07/21 00:51:14;;;;;;;9.13;7.55;;;;;;;;;;10181583;28;20139;-65
2022/07/21 00:56:08;;;;;;;13.77;9.98;;;;;;;;;;10183443;28;20052;-65
2022/07/21 01:01:03;;;;;;;9.88;8.60;;;;;;;;;;10183447;28;20142;-67
2022/07/21 01:05:59;;;;;;;10.45;6.90;;;;;;;;;;10182386;28;20045;-65
2022/07/21 01:10:53;;;;;;;13.93;8.30;;;;;;;;;;10183768;28;20602;-64
2022/07/21 01:15:48;;;;;;;8.05;7.22;;;;;;;;;;10173756;28;20500;-66
2022/07/21 01:20:45;;;;;;;11.13;6.97;;;;;;;;;;10177338;28;20102;-63
2022/07/21 01:25:39;;;;;;;12.60;7.40;;;;;;;;;;10183950;28;20737;-63
2022/07/21 01:30:34;;;;;;;11.25;7.05;;;;;;;;;;10173019;28;20584;-63
2022/07/21 01:35:28;;;;;;;13.70;8.32;;;;;;;;;;10176463;28;20072;-65
2022/07/21 01:45:35;;;;;;;9.95;8.70;;;;;;;;;;10175011;28;20458;-63
2022/07/21 01:50:29;;;;;;;11.73;8.10;;;;;;;;;;10174962;28;20075;-64
2022/07/21 01:55:24;;;;;;;10.48;7.55;;;;;;;;;;10181242;28;20059;-64
2022/07/21 02:00:19;;;;;;;11.07;7.82;;;;;;;;;;10171553;28;20109;-64
2022/07/21 02:05:13;;;;;;;11.43;10.23;;;;;;;;;;10164870;28;20075;-64
2022/07/21 02:10:09;;;;;;;17.75;13.55;;;;;;;;;;10176021;28;20063;-64
2022/07/21 02:15:06;;;;;;;16.05;12.68;;;;;;;;;;10177078;28;20040;-64
2022/07/21 02:19:59;;;;;;;14.35;11.63;;;;;;;;;;10181361;28;20043;-64
2022/07/21 02:24:53;;;;;;;14.00;12.05;;;;;;;;;;10182520;28;20044;-64
2022/07/21 02:29:46;;;;;;;32.80;10.40;;;;;;;;;;10177363;28;20059;-64
2022/07/21 02:34:40;;;;;;;14.88;9.52;;;;;;;;;;10163411;28;20052;-63
2022/07/21 02:39:36;;;;;;;17.65;11.75;;;;;;;;;;10162768;28;20044;-63
2022/07/21 02:44:31;;;;;;;15.52;14.02;;;;;;;;;;10167317;28;20070;-63
2022/07/21 02:49:26;;;;;;;17.55;11.15;;;;;;;;;;10163395;28;20389;-64
2022/07/21 02:54:20;;;;;;;15.23;11.00;;;;;;;;;;10166992;28;20123;-64
2022/07/21 02:59:15;;;;;;;12.77;11.27;;;;;;;;;;10166215;28;20094;-63
2022/07/21 03:04:11;;;;;;;14.45;13.02;;;;;;;;;;10167318;28;20493;-64
2022/07/21 03:09:05;;;;;;;12.85;11.55;;;;;;;;;;10171622;28;20424;-64
2022/07/21 03:14:00;;;;;;;13.40;12.18;;;;;;;;;;10164235;28;20135;-64
2022/07/21 03:18:54;;;;;;;13.40;12.00;;;;;;;;;;10169148;28;20048;-64
2022/07/21 03:23:49;;;;;;;12.80;11.43;;;;;;;;;;10168651;28;20044;-64
2022/07/21 03:28:43;;;;;;;12.57;10.30;;;;;;;;;;10159743;28;20044;-64
2022/07/21 03:33:37;;;;;;;10.75;9.63;;;;;;;;;;10151745;28;20049;-64
2022/07/21 03:38:31;;;;;;;13.50;11.50;;;;;;;;;;10163862;28;20045;-65
2022/07/21 03:43:25;;;;;;;13.80;12.40;;;;;;;;;;10161917;28;20052;-65
2022/07/21 03:48:19;;;;;;;19.35;11.30;;;;;;;;;;10160675;28;20053;-64
2022/07/21 03:53:12;;;;;;;13.32;12.00;;;;;;;;;;10159934;28;20067;-63
2022/07/21 03:58:06;;;;;;;16.58;12.52;;;;;;;;;;10170970;28;20079;-63
2022/07/21 04:03:00;;;;;;;15.88;14.27;;;;;;;;;;10177674;28;20040;-63
2022/07/21 04:07:55;;;;;;;22.80;17.45;;;;;;;;;;10166325;28;20050;-63
2022/07/21 04:12:50;;;;;;;19.73;17.80;;;;;;;;;;10169045;28;20050;-63
2022/07/21 04:17:44;;;;;;;17.63;15.98;;;;;;;;;;10175583;28;20131;-63
2022/07/21 04:22:38;;;;;;;17.33;15.82;;;;;;;;;;10172288;28;20424;-64
2022/07/21 04:27:34;;;;;;;17.00;15.57;;;;;;;;;;10162381;28;20045;-64
2022/07/21 04:32:28;;;;;;;17.67;15.63;;;;;;;;;;10154872;28;20056;-63
2022/07/21 04:37:23;;;;;;;15.30;13.85;;;;;;;;;;10166896;28;20053;-63
2022/07/21 04:42:17;;;;;;;14.30;12.82;;;;;;;;;;10180643;28;20045;-63
2022/07/21 04:47:11;;;;;;;13.20;11.93;;;;;;;;;;10173651;28;20144;-64
2022/07/21 04:52:05;;;;;;;16.92;15.23;;;;;;;;;;10174977;28;20094;-64
2022/07/21 04:57:02;;;;;;;15.90;13.77;;;;;;;;;;10169182;28;20045;-63
2022/07/21 05:01:56;;;;;;;21.65;17.83;;;;;;;;;;10170663;28;20132;-63
2022/07/21 05:06:50;;;;;;;27.35;17.02;;;;;;;;;;10169207;28;20056;-63
2022/07/21 05:11:43;;;;;;;18.92;16.05;;;;;;;;;;10158438;28;20048;-64
2022/07/21 05:16:37;;;;;;;18.20;16.30;;;;;;;;;;10173200;28;20135;-63
2022/07/21 05:21:31;;;;;;;28.67;17.75;;;;;;;;;;10172959;28;20048;-63
2022/07/21 05:26:24;;;;;;;22.38;17.02;;;;;;;;;;10160167;28;20060;-63
2022/07/21 05:31:17;;;;;;;24.10;17.27;;;;;;;;;;10165280;28;20100;-63
2022/07/21 05:36:12;;;;;;;35.47;18.45;;;;;;;;;;10153009;28;20060;-63
2022/07/21 05:41:07;;;;;;;43.35;22.75;;;;;;;;;;10160413;28;20040;-64
2022/07/21 05:46:00;;;;;;;32.20;19.83;;;;;;;;;;10163271;28;20056;-63
2022/07/21 05:50:54;;;;;;;34.92;21.73;;;;;;;;;;10161764;28;20052;-63
2022/07/21 05:55:47;;;;;;;42.80;19.98;;;;;;;;;;10168491;28;20094;-63
2022/07/21 06:00:41;;;;;;;26.02;17.45;;;;;;;;;;10167961;28;20061;-64
2022/07/21 06:05:36;;;;;;;18.42;16.75;;;;;;;;;;10164810;28;20053;-64
2022/07/21 06:10:31;;;;;;;29.38;17.65;;;;;;;;;;10171900;28;20109;-64
2022/07/21 06:15:26;;;;;;;30.17;19.88;;;;;;;;;;10174249;28;20127;-64
2022/07/21 06:20:19;;;;;;;36.78;20.58;;;;;;;;;;10161953;28;20056;-66
2022/07/21 06:25:14;;;;;;;34.28;21.10;;;;;;;;;;10160249;28;20049;-65
2022/07/21 06:30:09;;;;;;;28.85;21.95;;;;;;;;;;10158173;28;20049;-65
2022/07/21 06:35:03;;;;;;;32.53;22.08;;;;;;;;;;10162720;28;20068;-64
2022/07/21 06:39:57;;;;;;;31.27;19.38;;;;;;;;;;10161872;28;20052;-64
2022/07/21 06:44:52;;;;;;;33.38;19.88;;;;;;;;;;10167588;28;20056;-61
2022/07/21 06:49:46;;;;;;;32.42;20.05;;;;;;;;;;10167079;28;20072;-61
2022/07/21 06:54:40;;;;;;;34.63;20.58;;;;;;;;;;10163571;28;20377;-62
2022/07/21 06:59:35;;;;;;;25.88;19.30;;;;;;;;;;10169653;28;20048;-64
2022/07/21 07:04:29;;;;;;;25.88;17.67;;;;;;;;;;10164723;28;20163;-62
2022/07/21 07:09:23;;;;;;;25.77;21.08;;;;;;;;;;10164023;28;20419;-63
2022/07/21 07:14:17;;;;;;;32.38;18.98;;;;;;;;;;10175858;28;20090;-63
2022/07/21 07:19:11;;;;;;;28.23;19.83;;;;;;;;;;10167773;28;20044;-60
2022/07/21 07:24:06;;;;;;;26.63;20.73;;;;;;;;;;10167661;28;20044;-61
2022/07/21 07:29:00;;;;;;;26.02;19.30;;;;;;;;;;10165073;28;20123;-63
2022/07/21 07:33:57;;;;;;;24.13;18.10;;;;;;;;;;10169638;28;20445;-63
2022/07/21 07:38:57;;;;;;;23.52;16.58;;;;;;;;;;10163966;28;20413;-63
2022/07/21 07:43:54;;;;;;;22.98;19.17;;;;;;;;;;10166857;28;20066;-62
2022/07/21 07:48:49;;;;;;;20.45;17.33;;;;;;;;;;10160296;28;20059;-62
2022/07/21 07:53:43;;;;;;;19.70;17.15;;;;;;;;;;10177719;28;21043;-63
2022/07/21 07:58:38;;;;;;;24.90;16.73;;;;;;;;;;10178916;28;20036;-63
2022/07/21 08:03:31;;;;;;;21.83;15.98;;;;;;;;;;10178832;28;20040;-62
2022/07/21 08:08:25;;;;;;;24.05;16.05;;;;;;;;;;10174621;28;20066;-62
2022/07/21 08:13:20;;;;;;;22.45;13.75;;;;;;;;;;10176710;28;20045;-64
2022/07/21 08:18:17;;;;;;;20.98;15.10;;;;;;;;;;10174375;28;20060;-62
2022/07/21 08:23:11;;;;;;;28.33;13.77;;;;;;;;;;10177190;28;20047;-62
2022/07/21 08:28:08;;;;;;;16.75;12.70;;;;;;;;;;10176404;28;20098;-61
2022/07/21 08:33:03;;;;;;;20.95;10.43;;;;;;;;;;10177041;28;20058;-61
2022/07/21 08:38:02;;;;;;;16.52;10.82;;;;;;;;;;10164683;28;20128;-62
2022/07/21 08:42:57;;;;;;;14.60;11.02;;;;;;;;;;10176622;28;20052;-62
2022/07/21 08:47:55;;;;;;;14.50;9.88;;;;;;;;;;10181601;28;20456;-62
2022/07/21 08:52:49;;;;;;;16.80;9.60;;;;;;;;;;10185717;28;20044;-66
2022/07/21 08:57:51;;;;;;;15.82;8.93;;;;;;;;;;10181085;28;20048;-65
2022/07/21 09:02:45;;;;;;;11.85;9.55;;;;;;;;;;10180842;28;20483;-65
2022/07/21 09:07:54;;;;;;;14.65;8.93;;;;;;;;;;10168518;28;20044;-66
2022/07/21 09:12:54;;;;;;;24.30;9.85;;;;;;;;;;10182734;28;20055;-64
2022/07/21 09:18:08;;;;;;;12.98;8.40;;;;;;;;;;10161118;28;20146;-63
2022/07/21 09:23:14;;;;;;;10.00;7.03;;;;;;;;;;10175996;28;20116;-64
2022/07/21 09:28:09;;;;;;;19.88;7.63;;;;;;;;;;10172658;28;20059;-64
2022/07/21 09:33:20;;;;;;;12.80;7.73;;;;;;;;;;10157821;28;20408;-64
2022/07/21 09:38:13;;;;;;;16.38;6.95;;;;;;;;;;10174826;28;20048;-65
2022/07/21 09:43:07;;;;;;;10.63;6.13;;;;;;;;;;10174491;28;20065;-63
2022/07/21 09:48:01;;;;;;;13.48;5.93;;;;;;;;;;10165621;28;20117;-64
2022/07/21 09:53:12;;;;;;;10.25;5.95;;;;;;;;;;10180142;28;20047;-64
2022/07/21 09:58:07;;;;;;;14.43;6.30;;;;;;;;;;10178290;28;20047;-61
2022/07/21 10:03:01;;;;;;;14.00;6.22;;;;;;;;;;10177024;28;20135;-63
2022/07/21 10:07:56;;;;;;;9.05;5.22;;;;;;;;;;10175033;28;20512;-57
2022/07/21 10:12:50;;;;;;;7.75;4.65;;;;;;;;;;10166893;28;20058;-58
2022/07/21 10:17:44;;;;;;;7.78;4.45;;;;;;;;;;10177189;28;20713;-58
2022/07/21 10:22:40;;;;;;;12.70;4.97;;;;;;;;;;10165646;28;20059;-57
2022/07/21 10:27:34;;;;;;;14.07;4.43;;;;;;;;;;10179270;28;20366;-59
2022/07/21 10:32:51;;;;;;;19.52;4.35;;;;;;;;;;10179251;28;20425;-57
2022/07/21 10:37:45;;;;;;;8.63;3.92;;;;;;;;;;10172493;28;20458;-58
2022/07/21 10:42:39;;;;;;;7.90;3.13;;;;;;;;;;10170825;28;20051;-58
2022/07/21 10:47:33;;;;;;;6.70;2.97;;;;;;;;;;10176435;28;20094;-58
2022/07/21 10:52:35;;;;;;;7.18;2.85;;;;;;;;;;10163296;28;20048;-58
2022/07/21 10:57:29;;;;;;;5.50;2.30;;;;;;;;;;10177073;28;20495;-58
2022/07/21 11:02:26;;;;;;;5.65;2.72;;;;;;;;;;10175785;28;20412;-61
2022/07/21 11:07:20;;;;;;;5.32;2.53;;;;;;;;;;10176472;28;20117;-61
2022/07/21 11:12:14;;;;;;;11.18;2.72;;;;;;;;;;10180389;28;20043;-61
2022/07/21 11:17:10;;;;;;;11.07;2.33;;;;;;;;;;10167141;28;20051;-59
2022/07/21 11:22:06;;;;;;;7.13;2.83;;;;;;;;;;10171679;28;20119;-62
2022/07/21 11:29:26;;;;;;;7.03;2.63;;;;;;;;;;10226922;27;20530;-58
2022/07/21 11:34:19;;;;;;;10.30;2.67;;;;;;;;;;10221029;28;20131;-57
2022/07/21 11:39:15;;;;;;;5.88;2.35;;;;;;;;;;10218551;28;20496;-58
2022/07/21 11:44:10;;;;;;;3.85;2.10;;;;;;;;;;10216668;28;20058;-63
2022/07/21 11:49:05;;;;;;;11.52;1.92;;;;;;;;;;10216420;28;20047;-63
2022/07/21 11:54:00;;;;;;;7.78;2.15;;;;;;;;;;10216565;28;20068;-63
2022/07/21 11:59:28;;;;;;;9.68;2.22;;;;;;;;;;10218865;28;20708;-67
2022/07/21 12:04:44;;;;;;;5.88;2.15;;;;;;;;;;10220251;28;20113;-62
2022/07/21 12:09:47;;;;;;;9.52;2.20;;;;;;;;;;10220292;28;20052;-61
2022/07/21 12:14:47;;;;;;;6.78;1.90;;;;;;;;;;10217246;28;20563;-62
2022/07/21 12:19:45;;;;;;;5.78;1.83;;;;;;;;;;10217259;28;20048;-63
2022/07/21 12:25:08;;;;;;;8.35;2.15;;;;;;;;;;10212987;28;20052;-63
2022/07/21 12:30:03;;;;;;;3.42;2.88;;;;;;;;;;10208980;28;20043;-63
2022/07/21 12:34:59;;;;;;;9.10;2.33;;;;;;;;;;10217204;28;20558;-62
2022/07/21 12:40:11;;;;;;;8.25;2.17;;;;;;;;;;10185047;28;20050;-61
2022/07/21 12:45:20;;;;;;;9.10;2.07;;;;;;;;;;10190666;28;20044;-62
2022/07/21 12:50:15;;;;;;;5.05;2.83;;;;;;;;;;10189736;28;20664;-62
2022/07/21 12:55:16;;;;;;;9.63;2.15;;;;;;;;;;10189884;28;20582;-62
2022/07/21 13:00:11;;;;;;;6.68;2.20;;;;;;;;;;10187949;28;20051;-62
2022/07/21 13:05:06;;;;;;;5.03;2.22;;;;;;;;;;10185819;28;20044;-61
2022/07/21 13:09:59;;;;;;;6.20;2.10;;;;;;;;;;10185932;28;20670;-61
2022/07/21 13:14:53;;;;;;;6.40;2.23;;;;;;;;;;10189562;28;20107;-62
2022/07/21 13:19:48;;;;;;;4.95;2.10;;;;;;;;;;10190099;28;20294;-62
2022/07/21 13:24:45;;;;;;;6.53;2.42;;;;;;;;;;10189650;28;20052;-61
2022/07/21 13:29:39;;;;;;;6.95;1.95;;;;;;;;;;10188273;28;20052;-63
2022/07/21 13:34:34;;;;;;;10.25;1.90;;;;;;;;;;10188837;28;20066;-63
2022/07/21 13:39:43;;;;;;;7.75;2.60;;;;;;;;;;10179137;28;20050;-62
2022/07/21 13:44:57;;;;;;;3.92;2.25;;;;;;;;;;10188825;28;20395;-62
2022/07/21 13:49:51;;;;;;;4.57;2.30;;;;;;;;;;10187410;28;20142;-62
2022/07/21 13:54:45;;;;;;;5.90;2.38;;;;;;;;;;10188905;28;20066;-62
2022/07/21 13:59:38;;;;;;;5.65;2.60;;;;;;;;;;10187455;28;20082;-62
2022/07/21 14:04:33;;;;;;;9.17;2.30;;;;;;;;;;10189592;28;20066;-63
2022/07/21 14:09:28;;;;;;;3.60;2.13;;;;;;;;;;10186877;28;20422;-62
2022/07/21 14:14:25;;;;;;;7.00;2.47;;;;;;;;;;10188960;28;20371;-62
2022/07/21 14:19:20;;;;;;;7.97;3.10;;;;;;;;;;10187772;28;20044;-62
2022/07/21 14:29:27;;;;;;;7.88;2.90;;;;;;;;;;10185820;28;20075;-62
2022/07/21 14:34:21;;;;;;;3.13;2.80;;;;;;;;;;10185023;28;20048;-62
2022/07/21 14:39:15;;;;;;;7.85;2.70;;;;;;;;;;10186414;28;20044;-62
2022/07/21 14:44:08;;;;;;;8.65;3.13;;;;;;;;;;10186604;28;20055;-63
2022/07/21 14:49:03;;;;;;;8.25;3.15;;;;;;;;;;10185991;28;20048;-61
2022/07/21 14:53:56;;;;;;;4.50;2.80;;;;;;;;;;10186593;28;20098;-61
2022/07/21 14:58:50;;;;;;;11.13;3.80;;;;;;;;;;10178699;28;20052;-63
2022/07/21 15:03:43;;;;;;;6.80;3.45;;;;;;;;;;10186598;28;20399;-62
2022/07/21 15:08:38;;;;;;;5.20;3.17;;;;;;;;;;10188213;28;20044;-62
2022/07/21 15:13:31;;;;;;;7.00;3.33;;;;;;;;;;10185143;28;20079;-61
2022/07/21 15:18:27;;;;;;;7.75;3.78;;;;;;;;;;10184565;28;20043;-61
2022/07/21 15:23:20;;;;;;;5.15;3.78;;;;;;;;;;10180324;28;20368;-63
2022/07/21 15:28:14;;;;;;;9.10;3.60;;;;;;;;;;10185988;28;20091;-63
2022/07/21 15:33:09;;;;;;;9.80;3.40;;;;;;;;;;10184136;28;20052;-62
2022/07/21 15:38:03;;;;;;;6.20;3.85;;;;;;;;;;10184998;28;20048;-61
2022/07/21 15:43:05;;;;;;;10.07;4.20;;;;;;;;;;10186875;28;20480;-61
2022/07/21 15:48:00;;;;;;;8.40;3.88;;;;;;;;;;10186109;28;20460;-62
2022/07/21 15:52:54;;;;;;;7.50;4.43;;;;;;;;;;10185113;28;20052;-62
2022/07/21 15:57:48;;;;;;;6.70;3.42;;;;;;;;;;10183918;28;20138;-62
2022/07/21 16:02:43;;;;;;;12.23;4.22;;;;;;;;;;10185103;28;20391;-62
2022/07/21 16:07:37;;;;;;;8.60;3.47;;;;;;;;;;10183937;28;20555;-63
2022/07/21 16:12:32;;;;;;;4.65;3.38;;;;;;;;;;10189461;28;20105;-61
2022/07/21 16:17:26;;;;;;;3.72;3.10;;;;;;;;;;10192183;28;20455;-61
2022/07/21 16:22:20;;;;;;;12.20;3.30;;;;;;;;;;10192329;28;20138;-62
2022/07/21 16:27:14;;;;;;;7.38;3.67;;;;;;;;;;10192020;28;20048;-63
2022/07/21 16:32:12;;;;;;;6.85;4.00;;;;;;;;;;10192418;28;20402;-61
2022/07/21 16:37:06;;;;;;;;;;;;;;;;;;10193144;28;20051;-62
2022/07/21 16:41:59;;;;;;;9.27;3.75;;;;;;;;;;10188969;28;19951;-60
2022/07/21 16:46:52;;;;;;;8.73;3.40;;;;;;;;;;10191519;28;20048;-60
2022/07/21 16:51:47;;;;;;;9.57;2.90;;;;;;;;;;10192346;28;20056;-59
2022/07/21 16:56:41;;;;;;;8.55;3.13;;;;;;;;;;10192330;28;20048;-61
2022/07/21 17:01:36;;;;;;;8.32;3.63;;;;;;;;;;10174594;28;20058;-61
2022/07/21 17:06:30;;;;;;;11.57;4.22;;;;;;;;;;10190753;28;20076;-61
2022/07/21 17:11:23;;;;;;;8.60;3.10;;;;;;;;;;10190345;28;20055;-61
2022/07/21 17:16:17;;;;;;;6.22;3.30;;;;;;;;;;10189280;28;20147;-62
2022/07/21 17:21:12;;;;;;;6.53;3.22;;;;;;;;;;10190489;28;20044;-62
2022/07/21 17:26:06;;;;;;;9.20;3.28;;;;;;;;;;10190879;28;20101;-61
2022/07/21 17:31:00;;;;;;;6.45;2.78;;;;;;;;;;10190704;28;20055;-61
2022/07/21 17:35:54;;;;;;;6.15;2.90;;;;;;;;;;10190018;28;20098;-62
2022/07/21 17:40:48;;;;;;;12.43;3.83;;;;;;;;;;10189352;28;20044;-62
2022/07/21 17:45:42;;;;;;;5.85;2.80;;;;;;;;;;10189309;28;20138;-61
2022/07/21 17:50:36;;;;;;;8.85;3.25;;;;;;;;;;10189171;28;20075;-61
2022/07/21 17:55:30;;;;;;;7.70;3.42;;;;;;;;;;10188544;28;20071;-61
2022/07/21 18:00:25;;;;;;;15.00;3.35;;;;;;;;;;10189450;28;20055;-61
2022/07/21 18:05:18;;;;;;;6.20;2.80;;;;;;;;;;10189691;28;20168;-60
2022/07/21 18:10:12;;;;;;;17.88;2.65;;;;;;;;;;10189033;28;20068;-61
2022/07/21 18:15:05;;;;;;;8.13;3.25;;;;;;;;;;10188646;28;20052;-61
2022/07/21 18:19:59;;;;;;;7.05;2.58;;;;;;;;;;10188903;28;20499;-61
2022/07/21 18:24:53;;;;;;;11.40;3.35;;;;;;;;;;10188212;28;20406;-61
2022/07/21 18:29:47;;;;;;;9.15;3.88;;;;;;;;;;10187560;28;20052;-62
2022/07/21 18:34:42;;;;;;;10.65;3.30;;;;;;;;;;10184924;28;20051;-61
2022/07/21 18:39:36;;;;;;;16.38;4.82;;;;;;;;;;10186665;28;20544;-59
2022/07/21 18:44:31;;;;;;;9.40;3.50;;;;;;;;;;10186537;28;20484;-61
2022/07/21 18:49:24;;;;;;;11.30;3.15;;;;;;;;;;10186459;28;20051;-61
2022/07/21 18:54:18;;;;;;;7.22;3.67;;;;;;;;;;10186674;28;20052;-62
2022/07/21 18:59:12;;;;;;;5.88;2.92;;;;;;;;;;10187463;28;20853;-62
2022/07/21 19:04:06;;;;;;;16.65;4.03;;;;;;;;;;10186766;28;20052;-62
2022/07/21 19:09:02;;;;;;;8.65;3.00;;;;;;;;;;10186559;28;20085;-63
2022/07/21 19:13:55;;;;;;;12.25;2.95;;;;;;;;;;10187368;28;20036;-63
2022/07/21 19:18:50;;;;;;;7.32;3.00;;;;;;;;;;10187446;28;20044;-63
2022/07/21 19:23:45;;;;;;;17.73;4.88;;;;;;;;;;10186834;28;20056;-63
2022/07/21 19:28:40;;;;;;;6.70;2.85;;;;;;;;;;10185603;28;20090;-62
2022/07/21 19:33:34;;;;;;;4.20;2.97;;;;;;;;;;10185865;28;20040;-62
2022/07/21 19:38:28;;;;;;;8.05;3.22;;;;;;;;;;10185248;28;20553;-62
2022/07/21 19:43:21;;;;;;;15.98;4.53;;;;;;;;;;10187613;28;20048;-62
2022/07/21 19:48:16;;;;;;;10.65;3.53;;;;;;;;;;10189886;28;20048;-62
2022/07/21 19:53:11;;;;;;;38.03;4.10;;;;;;;;;;10194508;28;20052;-62
2022/07/21 19:58:05;;;;;;;9.45;2.97;;;;;;;;;;10194601;28;20040;-62
2022/07/21 20:03:00;;;;;;;8.80;3.45;;;;;;;;;;10194226;28;20048;-62
2022/07/21 20:07:54;;;;;;;7.70;3.38;;;;;;;;;;10193923;28;20130;-62
2022/07/21 20:12:48;;;;;;;6.43;3.45;;;;;;;;;;10193646;28;20460;-62
2022/07/21 20:17:42;;;;;;;5.15;3.63;;;;;;;;;;10193608;28;20052;-62
2022/07/21 20:22:36;;;;;;;9.35;2.85;;;;;;;;;;10193626;28;20056;-62
2022/07/21 20:27:29;;;;;;;8.02;3.25;;;;;;;;;;10193073;28;20498;-62
2022/07/21 20:32:23;;;;;;;7.65;3.70;;;;;;;;;;10191647;28;20051;-62
2022/07/21 20:37:16;;;;;;;12.18;3.45;;;;;;;;;;10199573;28;20036;-62
2022/07/21 20:42:11;;;;;;;7.10;3.72;;;;;;;;;;10192430;28;20040;-62
2022/07/21 20:47:06;;;;;;;7.25;3.42;;;;;;;;;;10191788;28;20065;-63
2022/07/21 20:52:00;;;;;;;13.85;3.95;;;;;;;;;;10192045;28;20082;-63
2022/07/21 20:56:54;;;;;;;15.18;4.43;;;;;;;;;;10191960;28;20040;-63
2022/07/21 21:02:05;;;;;;;6.88;4.00;;;;;;;;;;10191671;28;20056;-63
2022/07/21 21:07:00;;;;;;;12.02;3.45;;;;;;;;;;10192203;28;20048;-62
2022/07/21 21:11:54;;;;;;;5.70;3.80;;;;;;;;;;10191719;28;20123;-63
2022/07/21 21:16:47;;;;;;;12.93;4.43;;;;;;;;;;10191115;28;20407;-63
2022/07/21 21:21:41;;;;;;;5.25;3.55;;;;;;;;;;10190639;28;20052;-63
2022/07/21 21:26:36;;;;;;;6.28;3.35;;;;;;;;;;10189599;28;20051;-63
2022/07/21 21:31:29;;;;;;;9.38;4.05;;;;;;;;;;10190732;28;20387;-62
2022/07/21 21:36:24;;;;;;;11.80;3.75;;;;;;;;;;10190664;28;20093;-62
2022/07/21 21:41:18;;;;;;;10.00;4.28;;;;;;;;;;10190708;28;20097;-63
2022/07/21 21:46:13;;;;;;;8.15;3.30;;;;;;;;;;10191067;28;20052;-63
2022/07/21 21:51:08;;;;;;;11.98;4.18;;;;;;;;;;10189658;28;20040;-62
2022/07/21 21:56:03;;;;;;;8.88;4.03;;;;;;;;;;10186785;28;20047;-62
2022/07/21 22:00:57;;;;;;;13.73;4.47;;;;;;;;;;10189539;28;20123;-61
2022/07/21 22:05:51;;;;;;;8.02;4.00;;;;;;;;;;10189516;28;20649;-62
2022/07/21 22:10:45;;;;;;;10.48;4.57;;;;;;;;;;10188515;28;20059;-62
2022/07/21 22:15:38;;;;;;;6.88;4.25;;;;;;;;;;10189293;28;20048;-62
2022/07/21 22:20:33;;;;;;;8.13;3.78;;;;;;;;;;10189178;28;20050;-61
2022/07/21 22:25:27;;;;;;;15.02;5.00;;;;;;;;;;10188800;28;20052;-62
2022/07/21 22:30:21;;;;;;;9.27;4.57;;;;;;;;;;10187397;28;20052;-61
2022/07/21 22:35:15;;;;;;;8.27;4.65;;;;;;;;;;10187411;28;20060;-61
2022/07/21 22:40:11;;;;;;;9.32;4.65;;;;;;;;;;10187441;28;20048;-63
2022/07/21 22:45:07;;;;;;;11.20;4.57;;;;;;;;;;10188173;28;20040;-61
2022/07/21 22:50:02;;;;;;;6.13;4.25;;;;;;;;;;10187913;28;20059;-63
2022/07/21 22:54:56;;;;;;;7.90;4.80;;;;;;;;;;10187752;28;20067;-61
2022/07/21 22:59:50;;;;;;;11.80;5.13;;;;;;;;;;10187714;28;20044;-61
2022/07/21 23:04:44;;;;;;;13.18;5.00;;;;;;;;;;10187624;28;20051;-61
2022/07/21 23:09:39;;;;;;;15.40;5.35;;;;;;;;;;10185972;28;20048;-61
2022/07/21 23:14:33;;;;;;;17.52;6.05;;;;;;;;;;10186883;28;20076;-61
2022/07/21 23:19:27;;;;;;;18.65;5.60;;;;;;;;;;10187311;28;20101;-61
2022/07/21 23:24:21;;;;;;;11.88;5.20;;;;;;;;;;10186220;28;20040;-62
2022/07/21 23:29:15;;;;;;;6.55;5.03;;;;;;;;;;10187208;28;20047;-62
2022/07/21 23:34:09;;;;;;;8.23;4.72;;;;;;;;;;10186645;28;20048;-61
2022/07/21 23:39:04;;;;;;;9.02;4.20;;;;;;;;;;10187083;28;20047;-62
2022/07/21 23:43:58;;;;;;;8.57;4.90;;;;;;;;;;10186779;28;20071;-61
2022/07/21 23:48:52;;;;;;;8.30;4.72;;;;;;;;;;10181455;28;20044;-62
2022/07/21 23:53:46;;;;;;;4.97;4.47;;;;;;;;;;10186148;28;20090;-61
2022/07/21 23:58:41;;;;;;;19.48;4.63;;;;;;;;;;10187126;28;20046;-62
